sensor_id;sensor_type;location;lat;lon;timestamp;pressure;altitude;pressure_sealevel;temperature;humidity
34103;BME280;20381;54.498;18.206;2023-07-24T00:00:42;98686.89;;;15.10;92.21
34103;BME280;20381;54.498;18.206;2023-07-24T00:03:31;98685.42;;;15.11;92.39
34103;BME280;20381;54.498;18.206;2023-07-24T00:06:00;98684.08;;;15.11;92.24
34103;BME280;20381;54.498;18.206;2023-07-24T00:08:28;98681.04;;;15.11;92.20
34103;BME280;20381;54.498;18.206;2023-07-24T00:10:57;98682.80;;;15.11;92.31
34103;BME280;20381;54.498;18.206;2023-07-24T00:13:27;98676.81;;;15.11;92.35
34103;BME280;20381;54.498;18.206;2023-07-24T00:15:57;98672.77;;;15.11;92.37
34103;BME280;20381;54.498;18.206;2023-07-24T00:18:28;98670.92;;;15.12;92.39
34103;BME280;20381;54.498;18.206;2023-07-24T00:20:57;98669.35;;;15.12;92.56
34103;BME280;20381;54.498;18.206;2023-07-24T00:23:25;98667.98;;;15.14;92.58
34103;BME280;20381;54.498;18.206;2023-07-24T00:25:54;98665.04;;;15.16;92.53
34103;BME280;20381;54.498;18.206;2023-07-24T00:28:23;98670.08;;;15.19;92.56
34103;BME280;20381;54.498;18.206;2023-07-24T00:30:52;98667.23;;;15.21;92.59
34103;BME280;20381;54.498;18.206;2023-07-24T00:33:21;98666.00;;;15.23;92.63
34103;BME280;20381;54.498;18.206;2023-07-24T00:35:49;98661.97;;;15.25;92.63
34103;BME280;20381;54.498;18.206;2023-07-24T00:38:18;98664.57;;;15.28;92.58
34103;BME280;20381;54.498;18.206;2023-07-24T00:40:47;98662.95;;;15.30;92.62
34103;BME280;20381;54.498;18.206;2023-07-24T00:43:16;98656.70;;;15.32;92.58
34103;BME280;20381;54.498;18.206;2023-07-24T00:45:46;98656.95;;;15.35;92.69
34103;BME280;20381;54.498;18.206;2023-07-24T00:48:15;98651.69;;;15.37;92.55
34103;BME280;20381;54.498;18.206;2023-07-24T00:50:45;98648.75;;;15.38;92.58
34103;BME280;20381;54.498;18.206;2023-07-24T00:53:15;98646.45;;;15.41;92.65
34103;BME280;20381;54.498;18.206;2023-07-24T00:55:46;98643.61;;;15.43;92.64
34103;BME280;20381;54.498;18.206;2023-07-24T00:58:16;98641.50;;;15.45;92.63
34103;BME280;20381;54.498;18.206;2023-07-24T01:00:46;98633.27;;;15.45;92.53
34103;BME280;20381;54.498;18.206;2023-07-24T01:03:15;98628.17;;;15.43;92.59
34103;BME280;20381;54.498;18.206;2023-07-24T01:05:44;98628.95;;;15.42;92.62
34103;BME280;20381;54.498;18.206;2023-07-24T01:08:14;98633.48;;;15.43;92.63
34103;BME280;20381;54.498;18.206;2023-07-24T01:10:42;98636.52;;;15.42;92.65
34103;BME280;20381;54.498;18.206;2023-07-24T01:13:24;98633.23;;;15.41;92.67
34103;BME280;20381;54.498;18.206;2023-07-24T01:16:03;98635.27;;;15.42;92.75
34103;BME280;20381;54.498;18.206;2023-07-24T01:18:34;98633.05;;;15.44;92.83
34103;BME280;20381;54.498;18.206;2023-07-24T01:21:08;98625.45;;;15.42;92.74
34103;BME280;20381;54.498;18.206;2023-07-24T01:23:58;98626.42;;;15.39;92.69
34103;BME280;20381;54.498;18.206;2023-07-24T01:26:27;98628.29;;;15.34;92.59
34103;BME280;20381;54.498;18.206;2023-07-24T01:28:57;98627.14;;;15.29;92.59
34103;BME280;20381;54.498;18.206;2023-07-24T01:31:25;98627.91;;;15.24;92.67
34103;BME280;20381;54.498;18.206;2023-07-24T01:33:54;98631.31;;;15.19;92.70
34103;BME280;20381;54.498;18.206;2023-07-24T01:36:23;98626.21;;;15.13;92.68
34103;BME280;20381;54.498;18.206;2023-07-24T01:38:52;98622.08;;;15.08;92.70
34103;BME280;20381;54.498;18.206;2023-07-24T01:41:22;98618.02;;;15.02;92.80
34103;BME280;20381;54.498;18.206;2023-07-24T01:43:51;98616.21;;;14.96;92.83
34103;BME280;20381;54.498;18.206;2023-07-24T01:46:20;98617.64;;;14.91;92.91
34103;BME280;20381;54.498;18.206;2023-07-24T01:48:48;98619.61;;;14.87;92.97
34103;BME280;20381;54.498;18.206;2023-07-24T01:51:17;98615.08;;;14.84;93.04
34103;BME280;20381;54.498;18.206;2023-07-24T01:53:46;98614.84;;;14.83;93.19
34103;BME280;20381;54.498;18.206;2023-07-24T01:56:15;98616.67;;;14.84;93.20
34103;BME280;20381;54.498;18.206;2023-07-24T01:58:43;98613.15;;;14.82;93.10
34103;BME280;20381;54.498;18.206;2023-07-24T02:01:12;98605.60;;;14.80;93.25
34103;BME280;20381;54.498;18.206;2023-07-24T02:03:43;98602.65;;;14.76;93.02
34103;BME280;20381;54.498;18.206;2023-07-24T02:06:12;98600.95;;;14.71;93.09
34103;BME280;20381;54.498;18.206;2023-07-24T02:08:40;98601.10;;;14.71;93.47
34103;BME280;20381;54.498;18.206;2023-07-24T02:11:15;98597.55;;;14.76;93.63
34103;BME280;20381;54.498;18.206;2023-07-24T02:13:44;98597.03;;;14.80;93.78
34103;BME280;20381;54.498;18.206;2023-07-24T02:16:13;98593.59;;;14.86;93.79
34103;BME280;20381;54.498;18.206;2023-07-24T02:18:43;98592.69;;;14.90;93.78
34103;BME280;20381;54.498;18.206;2023-07-24T02:21:11;98589.27;;;14.93;93.70
34103;BME280;20381;54.498;18.206;2023-07-24T02:23:40;98592.87;;;14.96;93.74
34103;BME280;20381;54.498;18.206;2023-07-24T02:26:09;98590.66;;;14.95;93.54
34103;BME280;20381;54.498;18.206;2023-07-24T02:28:37;98591.77;;;14.93;93.54
34103;BME280;20381;54.498;18.206;2023-07-24T02:31:06;98588.17;;;14.91;93.61
34103;BME280;20381;54.498;18.206;2023-07-24T02:33:35;98586.52;;;14.90;93.64
34103;BME280;20381;54.498;18.206;2023-07-24T02:36:04;98586.06;;;14.90;93.69
34103;BME280;20381;54.498;18.206;2023-07-24T02:38:33;98584.39;;;14.91;93.85
34103;BME280;20381;54.498;18.206;2023-07-24T02:41:01;98588.21;;;14.93;94.01
34103;BME280;20381;54.498;18.206;2023-07-24T02:43:30;98582.73;;;14.96;94.06
34103;BME280;20381;54.498;18.206;2023-07-24T02:46:02;98587.73;;;14.99;94.08
34103;BME280;20381;54.498;18.206;2023-07-24T02:48:31;98588.56;;;15.04;94.15
34103;BME280;20381;54.498;18.206;2023-07-24T02:51:00;98589.17;;;15.05;94.08
34103;BME280;20381;54.498;18.206;2023-07-24T02:53:29;98588.69;;;15.09;94.28
34103;BME280;20381;54.498;18.206;2023-07-24T02:55:58;98587.08;;;15.13;94.30
34103;BME280;20381;54.498;18.206;2023-07-24T02:58:27;98585.34;;;15.17;94.36
34103;BME280;20381;54.498;18.206;2023-07-24T03:01:05;98593.27;;;15.21;94.37
34103;BME280;20381;54.498;18.206;2023-07-24T03:03:35;98595.98;;;15.24;94.46
34103;BME280;20381;54.498;18.206;2023-07-24T03:06:03;98594.95;;;15.28;94.56
34103;BME280;20381;54.498;18.206;2023-07-24T03:08:33;98594.02;;;15.33;94.59
34103;BME280;20381;54.498;18.206;2023-07-24T03:11:05;98587.21;;;15.36;94.55
34103;BME280;20381;54.498;18.206;2023-07-24T03:13:34;98587.73;;;15.40;94.57
34103;BME280;20381;54.498;18.206;2023-07-24T03:16:03;98586.06;;;15.44;94.54
34103;BME280;20381;54.498;18.206;2023-07-24T03:18:31;98585.71;;;15.46;94.58
34103;BME280;20381;54.498;18.206;2023-07-24T03:21:00;98590.02;;;15.51;94.74
34103;BME280;20381;54.498;18.206;2023-07-24T03:23:29;98591.32;;;15.54;94.65
34103;BME280;20381;54.498;18.206;2023-07-24T03:25:58;98590.30;;;15.58;94.72
34103;BME280;20381;54.498;18.206;2023-07-24T03:28:27;98593.35;;;15.61;94.78
34103;BME280;20381;54.498;18.206;2023-07-24T03:30:55;98595.08;;;15.65;94.74
34103;BME280;20381;54.498;18.206;2023-07-24T03:33:24;98595.00;;;15.71;94.89
34103;BME280;20381;54.498;18.206;2023-07-24T03:35:53;98592.98;;;15.72;94.60
34103;BME280;20381;54.498;18.206;2023-07-24T03:38:21;98589.95;;;15.70;94.47
34103;BME280;20381;54.498;18.206;2023-07-24T03:40:50;98589.70;;;15.69;94.56
34103;BME280;20381;54.498;18.206;2023-07-24T03:43:19;98588.15;;;15.71;94.64
34103;BME280;20381;54.498;18.206;2023-07-24T03:45:47;98587.56;;;15.74;94.75
34103;BME280;20381;54.498;18.206;2023-07-24T03:48:16;98587.70;;;15.78;94.95
34103;BME280;20381;54.498;18.206;2023-07-24T03:50:45;98590.90;;;15.80;95.09
34103;BME280;20381;54.498;18.206;2023-07-24T03:53:14;98581.50;;;15.85;95.20
34103;BME280;20381;54.498;18.206;2023-07-24T03:55:43;98578.05;;;15.92;95.29
34103;BME280;20381;54.498;18.206;2023-07-24T03:58:12;98580.47;;;16.01;95.39
34103;BME280;20381;54.498;18.206;2023-07-24T04:00:41;98583.36;;;16.10;95.38
34103;BME280;20381;54.498;18.206;2023-07-24T04:03:10;98587.14;;;16.15;95.02
34103;BME280;20381;54.498;18.206;2023-07-24T04:05:39;98579.45;;;16.16;95.06
34103;BME280;20381;54.498;18.206;2023-07-24T04:08:08;98573.44;;;16.21;95.19
34103;BME280;20381;54.498;18.206;2023-07-24T04:10:36;98566.85;;;16.28;95.21
34103;BME280;20381;54.498;18.206;2023-07-24T04:13:05;98562.20;;;16.35;95.00
34103;BME280;20381;54.498;18.206;2023-07-24T04:15:34;98567.20;;;16.42;95.00
34103;BME280;20381;54.498;18.206;2023-07-24T04:18:03;98564.55;;;16.50;95.02
34103;BME280;20381;54.498;18.206;2023-07-24T04:20:31;98566.17;;;16.61;95.10
34103;BME280;20381;54.498;18.206;2023-07-24T04:23:00;98568.20;;;16.71;95.13
34103;BME280;20381;54.498;18.206;2023-07-24T04:25:29;98572.08;;;16.83;95.14
34103;BME280;20381;54.498;18.206;2023-07-24T04:27:58;98572.67;;;16.96;95.15
34103;BME280;20381;54.498;18.206;2023-07-24T04:30:26;98575.23;;;17.12;95.28
34103;BME280;20381;54.498;18.206;2023-07-24T04:32:55;98572.98;;;17.27;94.99
34103;BME280;20381;54.498;18.206;2023-07-24T04:35:26;98569.96;;;17.40;95.00
34103;BME280;20381;54.498;18.206;2023-07-24T04:37:55;98565.91;;;17.51;94.33
34103;BME280;20381;54.498;18.206;2023-07-24T04:40:25;98556.65;;;17.58;94.45
34103;BME280;20381;54.498;18.206;2023-07-24T04:42:54;98555.47;;;17.73;94.78
34103;BME280;20381;54.498;18.206;2023-07-24T04:45:23;98556.05;;;17.85;94.53
34103;BME280;20381;54.498;18.206;2023-07-24T04:47:51;98553.10;;;17.99;94.57
34103;BME280;20381;54.498;18.206;2023-07-24T04:50:20;98548.30;;;18.15;94.47
34103;BME280;20381;54.498;18.206;2023-07-24T04:52:49;98549.71;;;18.25;94.04
34103;BME280;20381;54.498;18.206;2023-07-24T04:55:17;98554.59;;;18.33;93.85
34103;BME280;20381;54.498;18.206;2023-07-24T04:57:46;98556.45;;;18.44;93.90
34103;BME280;20381;54.498;18.206;2023-07-24T05:00:15;98559.23;;;18.56;93.79
34103;BME280;20381;54.498;18.206;2023-07-24T05:02:44;98565.78;;;18.61;93.39
34103;BME280;20381;54.498;18.206;2023-07-24T05:05:14;98568.98;;;18.66;93.51
34103;BME280;20381;54.498;18.206;2023-07-24T05:07:44;98568.20;;;18.67;92.89
34103;BME280;20381;54.498;18.206;2023-07-24T05:10:13;98568.73;;;18.58;92.52
34103;BME280;20381;54.498;18.206;2023-07-24T05:12:42;98564.83;;;18.54;92.76
34103;BME280;20381;54.498;18.206;2023-07-24T05:15:11;98567.09;;;18.55;93.17
34103;BME280;20381;54.498;18.206;2023-07-24T05:17:39;98566.92;;;18.60;92.73
34103;BME280;20381;54.498;18.206;2023-07-24T05:20:09;98574.14;;;18.62;92.64
34103;BME280;20381;54.498;18.206;2023-07-24T05:22:38;98577.77;;;18.68;92.38
34103;BME280;20381;54.498;18.206;2023-07-24T05:25:07;98573.44;;;18.76;92.68
34103;BME280;20381;54.498;18.206;2023-07-24T05:27:37;98575.09;;;18.83;92.21
34103;BME280;20381;54.498;18.206;2023-07-24T05:30:08;98570.11;;;18.85;91.96
34103;BME280;20381;54.498;18.206;2023-07-24T05:32:37;98572.89;;;18.85;91.53
34103;BME280;20381;54.498;18.206;2023-07-24T05:35:07;98569.21;;;18.83;91.38
34103;BME280;20381;54.498;18.206;2023-07-24T05:37:36;98573.55;;;18.88;91.81
34103;BME280;20381;54.498;18.206;2023-07-24T05:40:05;98580.25;;;18.93;91.50
34103;BME280;20381;54.498;18.206;2023-07-24T05:42:35;98582.16;;;18.95;91.33
34103;BME280;20381;54.498;18.206;2023-07-24T05:45:10;98585.91;;;19.03;91.41
34103;BME280;20381;54.498;18.206;2023-07-24T05:47:43;98583.08;;;19.09;91.11
34103;BME280;20381;54.498;18.206;2023-07-24T05:50:12;98576.46;;;19.13;90.69
34103;BME280;20381;54.498;18.206;2023-07-24T05:52:42;98565.20;;;19.18;90.67
34103;BME280;20381;54.498;18.206;2023-07-24T05:55:11;98561.30;;;19.15;90.14
34103;BME280;20381;54.498;18.206;2023-07-24T05:57:40;98560.15;;;19.11;89.89
34103;BME280;20381;54.498;18.206;2023-07-24T06:00:09;98556.30;;;19.09;89.93
34103;BME280;20381;54.498;18.206;2023-07-24T06:02:38;98560.65;;;19.13;90.42
34103;BME280;20381;54.498;18.206;2023-07-24T06:05:07;98554.92;;;19.25;90.24
34103;BME280;20381;54.498;18.206;2023-07-24T06:07:36;98548.94;;;19.32;89.62
34103;BME280;20381;54.498;18.206;2023-07-24T06:10:05;98552.48;;;19.34;89.28
34103;BME280;20381;54.498;18.206;2023-07-24T06:12:34;98555.64;;;19.41;89.76
34103;BME280;20381;54.498;18.206;2023-07-24T06:15:03;98556.25;;;19.48;89.35
34103;BME280;20381;54.498;18.206;2023-07-24T06:17:33;98553.02;;;19.51;89.12
34103;BME280;20381;54.498;18.206;2023-07-24T06:20:03;98555.38;;;19.52;88.94
34103;BME280;20381;54.498;18.206;2023-07-24T06:22:32;98558.59;;;19.55;88.99
34103;BME280;20381;54.498;18.206;2023-07-24T06:25:03;98562.12;;;19.60;88.46
34103;BME280;20381;54.498;18.206;2023-07-24T06:27:32;98564.75;;;19.66;88.63
34103;BME280;20381;54.498;18.206;2023-07-24T06:30:05;98571.73;;;19.68;88.05
34103;BME280;20381;54.498;18.206;2023-07-24T06:32:44;98574.36;;;19.67;88.26
34103;BME280;20381;54.498;18.206;2023-07-24T06:35:13;98573.98;;;19.65;87.78
34103;BME280;20381;54.498;18.206;2023-07-24T06:37:45;98567.48;;;19.53;87.50
34103;BME280;20381;54.498;18.206;2023-07-24T06:40:17;98563.50;;;19.43;87.41
34103;BME280;20381;54.498;18.206;2023-07-24T06:42:46;98561.68;;;19.28;87.27
34103;BME280;20381;54.498;18.206;2023-07-24T06:45:15;98558.76;;;19.00;86.91
34103;BME280;20381;54.498;18.206;2023-07-24T06:47:44;98559.04;;;18.77;87.39
34103;BME280;20381;54.498;18.206;2023-07-24T06:50:13;98559.89;;;18.69;88.03
34103;BME280;20381;54.498;18.206;2023-07-24T06:52:42;98558.60;;;18.71;88.21
34103;BME280;20381;54.498;18.206;2023-07-24T06:55:11;98560.30;;;18.74;88.29
34103;BME280;20381;54.498;18.206;2023-07-24T06:57:39;98561.14;;;18.88;88.56
34103;BME280;20381;54.498;18.206;2023-07-24T07:00:09;98562.05;;;19.18;89.22
34103;BME280;20381;54.498;18.206;2023-07-24T07:02:40;98561.73;;;19.62;89.33
34103;BME280;20381;54.498;18.206;2023-07-24T07:05:09;98553.63;;;19.97;88.39
34103;BME280;20381;54.498;18.206;2023-07-24T07:07:38;98549.40;;;20.15;87.63
34103;BME280;20381;54.498;18.206;2023-07-24T07:10:08;98545.81;;;20.25;87.49
34103;BME280;20381;54.498;18.206;2023-07-24T07:12:37;98544.67;;;20.36;87.32
34103;BME280;20381;54.498;18.206;2023-07-24T07:15:07;98539.98;;;20.57;87.43
34103;BME280;20381;54.498;18.206;2023-07-24T07:17:36;98531.92;;;21.04;88.18
34103;BME280;20381;54.498;18.206;2023-07-24T07:20:06;98529.48;;;21.75;88.80
34103;BME280;20381;54.498;18.206;2023-07-24T07:22:35;98529.49;;;22.45;87.31
34103;BME280;20381;54.498;18.206;2023-07-24T07:25:06;98525.52;;;23.05;86.86
34103;BME280;20381;54.498;18.206;2023-07-24T07:27:35;98525.27;;;23.98;87.21
34103;BME280;20381;54.498;18.206;2023-07-24T07:30:04;98520.62;;;24.98;86.06
34103;BME280;20381;54.498;18.206;2023-07-24T07:32:33;98512.07;;;25.53;84.41
34103;BME280;20381;54.498;18.206;2023-07-24T07:35:02;98516.98;;;25.66;82.77
34103;BME280;20381;54.498;18.206;2023-07-24T07:37:31;98516.39;;;25.71;82.85
34103;BME280;20381;54.498;18.206;2023-07-24T07:40:00;98519.42;;;25.91;82.69
34103;BME280;20381;54.498;18.206;2023-07-24T07:42:29;98517.08;;;26.20;82.42
34103;BME280;20381;54.498;18.206;2023-07-24T07:44:58;98522.37;;;26.34;80.54
34103;BME280;20381;54.498;18.206;2023-07-24T07:47:27;98516.91;;;26.42;80.66
34103;BME280;20381;54.498;18.206;2023-07-24T07:49:55;98511.92;;;26.54;79.60
34103;BME280;20381;54.498;18.206;2023-07-24T07:52:24;98513.45;;;26.43;78.58
34103;BME280;20381;54.498;18.206;2023-07-24T07:54:53;98505.38;;;26.75;80.73
34103;BME280;20381;54.498;18.206;2023-07-24T07:57:24;98501.60;;;28.13;81.69
34103;BME280;20381;54.498;18.206;2023-07-24T07:59:53;98504.33;;;30.05;80.68
34103;BME280;20381;54.498;18.206;2023-07-24T08:02:22;98504.96;;;31.62;77.66
34103;BME280;20381;54.498;18.206;2023-07-24T08:04:51;98510.00;;;31.99;72.04
34103;BME280;20381;54.498;18.206;2023-07-24T08:07:20;98504.21;;;31.79;73.75
34103;BME280;20381;54.498;18.206;2023-07-24T08:09:49;98499.36;;;32.45;73.57
34103;BME280;20381;54.498;18.206;2023-07-24T08:12:18;98496.77;;;32.19;71.54
34103;BME280;20381;54.498;18.206;2023-07-24T08:14:47;98491.58;;;31.79;71.76
34103;BME280;20381;54.498;18.206;2023-07-24T08:17:16;98492.14;;;32.57;72.05
34103;BME280;20381;54.498;18.206;2023-07-24T08:19:45;98481.48;;;33.86;71.24
34103;BME280;20381;54.498;18.206;2023-07-24T08:22:14;98484.08;;;33.89;66.40
34103;BME280;20381;54.498;18.206;2023-07-24T08:24:43;98490.23;;;33.53;66.03
34103;BME280;20381;54.498;18.206;2023-07-24T08:27:13;98484.48;;;34.07;66.38
34103;BME280;20381;54.498;18.206;2023-07-24T08:29:44;98478.30;;;34.65;65.78
34103;BME280;20381;54.498;18.206;2023-07-24T08:32:12;98472.10;;;35.10;63.62
34103;BME280;20381;54.498;18.206;2023-07-24T08:35:03;98468.86;;;35.25;62.81
34103;BME280;20381;54.498;18.206;2023-07-24T08:37:34;98466.59;;;35.09;61.79
34103;BME280;20381;54.498;18.206;2023-07-24T08:40:19;98467.40;;;35.96;61.05
34103;BME280;20381;54.498;18.206;2023-07-24T08:42:52;98460.94;;;37.15;58.93
34103;BME280;20381;54.498;18.206;2023-07-24T08:45:23;98454.21;;;37.70;54.95
34103;BME280;20381;54.498;18.206;2023-07-24T08:47:54;98450.50;;;37.82;54.23
34103;BME280;20381;54.498;18.206;2023-07-24T08:50:25;98442.89;;;38.30;55.16
34103;BME280;20381;54.498;18.206;2023-07-24T08:52:56;98437.27;;;39.18;51.09
34103;BME280;20381;54.498;18.206;2023-07-24T08:55:26;98433.71;;;39.47;50.15
34103;BME280;20381;54.498;18.206;2023-07-24T08:57:55;98434.08;;;40.15;50.17
34103;BME280;20381;54.498;18.206;2023-07-24T09:00:28;98436.49;;;41.15;48.46
34103;BME280;20381;54.498;18.206;2023-07-24T09:02:57;98437.91;;;41.67;46.45
34103;BME280;20381;54.498;18.206;2023-07-24T09:05:26;98433.15;;;42.03;45.60
34103;BME280;20381;54.498;18.206;2023-07-24T09:07:55;98434.86;;;42.28;44.22
34103;BME280;20381;54.498;18.206;2023-07-24T09:10:31;98433.77;;;42.63;43.39
34103;BME280;20381;54.498;18.206;2023-07-24T09:13:00;98426.63;;;42.33;41.29
34103;BME280;20381;54.498;18.206;2023-07-24T09:15:45;98426.13;;;41.89;40.40
34103;BME280;20381;54.498;18.206;2023-07-24T09:18:13;98429.73;;;42.20;39.67
34103;BME280;20381;54.498;18.206;2023-07-24T09:20:45;98427.25;;;42.69;38.36
34103;BME280;20381;54.498;18.206;2023-07-24T09:23:15;98421.69;;;42.72;36.67
34103;BME280;20381;54.498;18.206;2023-07-24T09:25:48;98421.86;;;42.33;34.56
34103;BME280;20381;54.498;18.206;2023-07-24T09:28:17;98423.33;;;42.34;34.81
34103;BME280;20381;54.498;18.206;2023-07-24T09:30:54;98414.38;;;42.58;35.10
34103;BME280;20381;54.498;18.206;2023-07-24T09:33:23;98414.32;;;43.19;33.58
34103;BME280;20381;54.498;18.206;2023-07-24T09:36:09;98410.69;;;43.25;31.58
34103;BME280;20381;54.498;18.206;2023-07-24T09:38:40;98408.48;;;42.63;29.96
34103;BME280;20381;54.498;18.206;2023-07-24T09:41:10;98404.38;;;42.71;31.76
34103;BME280;20381;54.498;18.206;2023-07-24T09:43:41;98404.70;;;42.77;30.77
34103;BME280;20381;54.498;18.206;2023-07-24T09:46:10;98406.58;;;42.89;30.31
34103;BME280;20381;54.498;18.206;2023-07-24T09:48:39;98402.64;;;42.80;29.96
34103;BME280;20381;54.498;18.206;2023-07-24T09:51:29;98400.91;;;42.79;30.07
34103;BME280;20381;54.498;18.206;2023-07-24T09:54:15;98401.42;;;43.22;29.97
34103;BME280;20381;54.498;18.206;2023-07-24T09:56:45;98395.56;;;43.63;29.51
34103;BME280;20381;54.498;18.206;2023-07-24T09:59:29;98395.46;;;43.89;29.13
34103;BME280;20381;54.498;18.206;2023-07-24T10:02:26;98390.83;;;44.31;28.84
34103;BME280;20381;54.498;18.206;2023-07-24T10:05:03;98389.27;;;44.57;28.62
34103;BME280;20381;54.498;18.206;2023-07-24T10:07:33;98386.36;;;44.67;28.26
34103;BME280;20381;54.498;18.206;2023-07-24T10:10:08;98382.11;;;44.39;26.74
34103;BME280;20381;54.498;18.206;2023-07-24T10:12:44;98372.24;;;42.70;26.81
34103;BME280;20381;54.498;18.206;2023-07-24T10:15:14;98374.31;;;41.48;26.59
34103;BME280;20381;54.498;18.206;2023-07-24T10:17:43;98379.86;;;40.55;26.61
34103;BME280;20381;54.498;18.206;2023-07-24T10:20:15;98369.87;;;40.26;27.99
34103;BME280;20381;54.498;18.206;2023-07-24T10:22:46;98369.99;;;41.96;28.20
34103;BME280;20381;54.498;18.206;2023-07-24T10:25:29;98366.65;;;43.64;27.06
34103;BME280;20381;54.498;18.206;2023-07-24T10:28:04;98361.25;;;44.48;26.62
34103;BME280;20381;54.498;18.206;2023-07-24T10:30:57;98360.15;;;44.99;26.20
34103;BME280;20381;54.498;18.206;2023-07-24T10:33:31;98352.69;;;44.80;25.71
34103;BME280;20381;54.498;18.206;2023-07-24T10:36:08;98356.00;;;44.84;25.63
34103;BME280;20381;54.498;18.206;2023-07-24T10:38:42;98353.27;;;45.38;25.59
34103;BME280;20381;54.498;18.206;2023-07-24T10:41:12;98346.27;;;45.87;25.04
34103;BME280;20381;54.498;18.206;2023-07-24T10:43:43;98346.09;;;46.06;24.28
34103;BME280;20381;54.498;18.206;2023-07-24T10:46:20;98337.96;;;45.95;24.65
34103;BME280;20381;54.498;18.206;2023-07-24T10:49:00;98331.82;;;46.74;24.75
34103;BME280;20381;54.498;18.206;2023-07-24T10:51:41;98336.09;;;48.01;24.55
34103;BME280;20381;54.498;18.206;2023-07-24T10:54:10;98339.61;;;47.71;23.21
34103;BME280;20381;54.498;18.206;2023-07-24T10:56:39;98338.13;;;46.57;23.46
34103;BME280;20381;54.498;18.206;2023-07-24T10:59:09;98340.80;;;46.78;23.69
34103;BME280;20381;54.498;18.206;2023-07-24T11:01:38;98340.92;;;46.97;22.91
34103;BME280;20381;54.498;18.206;2023-07-24T11:04:09;98339.16;;;45.45;22.48
34103;BME280;20381;54.498;18.206;2023-07-24T11:06:43;98336.63;;;44.33;23.02
34103;BME280;20381;54.498;18.206;2023-07-24T11:09:12;98332.98;;;44.17;23.46
34103;BME280;20381;54.498;18.206;2023-07-24T11:11:41;98328.55;;;44.69;23.39
34103;BME280;20381;54.498;18.206;2023-07-24T11:14:13;98329.89;;;45.32;23.25
34103;BME280;20381;54.498;18.206;2023-07-24T11:16:50;98326.77;;;44.83;22.34
34103;BME280;20381;54.498;18.206;2023-07-24T11:19:24;98323.38;;;42.52;22.19
34103;BME280;20381;54.498;18.206;2023-07-24T11:21:54;98325.38;;;40.77;23.09
34103;BME280;20381;54.498;18.206;2023-07-24T11:24:28;98327.02;;;39.28;23.27
34103;BME280;20381;54.498;18.206;2023-07-24T11:26:58;98320.75;;;37.93;24.01
34103;BME280;20381;54.498;18.206;2023-07-24T11:29:30;98325.80;;;36.85;24.41
34103;BME280;20381;54.498;18.206;2023-07-24T11:32:03;98325.08;;;35.98;24.97
34103;BME280;20381;54.498;18.206;2023-07-24T11:34:33;98321.71;;;35.31;25.45
34103;BME280;20381;54.498;18.206;2023-07-24T11:37:09;98325.20;;;34.54;25.86
34103;BME280;20381;54.498;18.206;2023-07-24T11:39:38;98326.65;;;33.31;26.12
34103;BME280;20381;54.498;18.206;2023-07-24T11:42:07;98336.34;;;32.30;26.88
34103;BME280;20381;54.498;18.206;2023-07-24T11:44:36;98337.15;;;31.28;27.77
34103;BME280;20381;54.498;18.206;2023-07-24T11:47:06;98340.22;;;30.10;28.26
34103;BME280;20381;54.498;18.206;2023-07-24T11:49:36;98338.07;;;29.36;29.06
34103;BME280;20381;54.498;18.206;2023-07-24T11:52:06;98344.80;;;28.63;30.07
34103;BME280;20381;54.498;18.206;2023-07-24T11:54:35;98345.02;;;28.06;30.46
34103;BME280;20381;54.498;18.206;2023-07-24T11:57:16;98338.09;;;28.00;31.17
34103;BME280;20381;54.498;18.206;2023-07-24T11:59:46;98335.73;;;28.41;31.47
34103;BME280;20381;54.498;18.206;2023-07-24T12:02:15;98331.05;;;28.86;31.96
34103;BME280;20381;54.498;18.206;2023-07-24T12:04:44;98322.76;;;29.63;32.70
34103;BME280;20381;54.498;18.206;2023-07-24T12:07:13;98318.46;;;31.12;32.79
34103;BME280;20381;54.498;18.206;2023-07-24T12:09:50;98312.89;;;32.23;32.43
34103;BME280;20381;54.498;18.206;2023-07-24T12:12:19;98308.61;;;32.78;31.86
34103;BME280;20381;54.498;18.206;2023-07-24T12:14:47;98307.94;;;32.13;31.89
34103;BME280;20381;54.498;18.206;2023-07-24T12:17:19;98311.81;;;31.55;32.59
34103;BME280;20381;54.498;18.206;2023-07-24T12:19:48;98309.25;;;30.93;32.80
34103;BME280;20381;54.498;18.206;2023-07-24T12:22:17;98307.14;;;30.36;32.93
34103;BME280;20381;54.498;18.206;2023-07-24T12:24:47;98305.42;;;29.85;33.95
34103;BME280;20381;54.498;18.206;2023-07-24T12:27:16;98306.38;;;29.45;34.45
34103;BME280;20381;54.498;18.206;2023-07-24T12:29:48;98301.75;;;29.18;34.50
34103;BME280;20381;54.498;18.206;2023-07-24T12:32:17;98300.63;;;29.13;34.62
34103;BME280;20381;54.498;18.206;2023-07-24T12:34:46;98305.95;;;28.95;34.96
34103;BME280;20381;54.498;18.206;2023-07-24T12:37:16;98309.54;;;28.81;35.29
34103;BME280;20381;54.498;18.206;2023-07-24T12:39:46;98309.20;;;28.86;35.57
34103;BME280;20381;54.498;18.206;2023-07-24T12:42:16;98304.84;;;28.76;35.72
34103;BME280;20381;54.498;18.206;2023-07-24T12:44:44;98301.90;;;28.48;35.92
34103;BME280;20381;54.498;18.206;2023-07-24T12:47:13;98291.45;;;28.51;36.36
34103;BME280;20381;54.498;18.206;2023-07-24T12:49:42;98292.75;;;28.60;36.71
34103;BME280;20381;54.498;18.206;2023-07-24T12:52:11;98290.45;;;28.55;36.51
34103;BME280;20381;54.498;18.206;2023-07-24T12:54:41;98284.47;;;28.33;37.01
34103;BME280;20381;54.498;18.206;2023-07-24T12:57:29;98281.41;;;28.14;37.24
34103;BME280;20381;54.498;18.206;2023-07-24T12:59:58;98280.20;;;28.10;37.53
34103;BME280;20381;54.498;18.206;2023-07-24T13:02:28;98280.95;;;28.04;37.56
34103;BME280;20381;54.498;18.206;2023-07-24T13:04:56;98272.42;;;28.15;38.37
34103;BME280;20381;54.498;18.206;2023-07-24T13:07:26;98270.80;;;28.32;38.31